Overview Statistics Trail Chart Weather Telemetry Raw packets
 

This is the latest recevied weather packets stored in our database for station/object OK2KJT-11. If no packets are shown the sender has not sent any weather packets the latest 10 day(s).

<< 18 19 20 21 22 23 24 >>
Time Temp. Humidity Pressure Rain* Wind** Luminosity Snow
1788433158 20° C 52% 1021.6 hPa - - - -
1788432558 18.89° C 53% 1021.5 hPa - - - -
1788431958 19.44° C 55% 1021.6 hPa - - - -
1788431358 18.89° C 55% 1021.6 hPa - - - -
1788430759 19.44° C 57% 1021.6 hPa - - - -
1788430159 18.89° C 59% 1021.8 hPa - - - -
1788429558 18.89° C 60% 1021.8 hPa - - - -
1788428957 17.78° C 65% 1022 hPa - - - -
1788428358 17.22° C 67% 1022.1 hPa - - - -
1788427758 17.22° C 71% 1022.1 hPa - - - -
1788427158 17.22° C 69% 1022.1 hPa - - - -
1788426558 17.22° C 71% 1022.2 hPa - - - -
1788425959 17.22° C 70% 1022.2 hPa - - - -
1788425359 17.22° C 68% 1022.2 hPa - - - -
1788424759 18.33° C 63% 1022.2 hPa - - - -
1788424160 18.33° C 64% 1022.1 hPa - - - -
1788423560 18.33° C 64% 1022 hPa - - - -
1788422960 17.78° C 65% 1021.9 hPa - - - -
1788422543 17.78° C 65% 1022 hPa - - - -
1788422446 17.78° C 65% 1022 hPa - - - -
1788422360 17.78° C 65% 1022 hPa - - - -
1788421761 17.22° C 65% 1021.9 hPa - - - -
1788421161 16.67° C 66% 1021.8 hPa - - - -
1788420560 16.11° C 67% 1021.7 hPa - - - -
1788419960 15.56° C 70% 1021.7 hPa - - - -

* Rain since midnight (hover to see other rain measurements)
** Current wind speed in m/s (hover to see current wind gust speed)